Time;durP1;ratioP1;P1;durP2;ratioP2;P2;SDS_P1;SDS_P2;PMS_P1;PMS_P2;Temp;Humidity;BMP_temperature;BMP_pressure;BME280_temperature;BME280_humidity;BME280_pressure;Samples;Min_cycle;Max_cycle;Signal;HPM_P1;HPM_P2
2022/03/19 00:01:37;;;;;;;0.50;0.50;;;8.30;99.90;;;;;;4433882;32;20065;-65
2022/03/19 00:04:03;;;;;;;0.55;0.55;;;8.30;99.90;;;;;;4432036;32;20133;-65
2022/03/19 00:06:29;;;;;;;0.75;0.75;;;8.30;99.90;;;;;;4433534;32;20444;-65
2022/03/19 00:08:55;;;;;;;0.62;0.62;;;8.20;99.90;;;;;;4432837;32;20846;-65
2022/03/19 00:11:23;;;;;;;0.60;0.60;;;8.10;99.90;;;;;;4435315;32;20549;-65
2022/03/19 00:13:48;;;;;;;3.12;0.95;;;8.10;99.90;;;;;;4435426;32;20084;-65
2022/03/19 00:16:14;;;;;;;0.70;0.52;;;8.10;99.90;;;;;;4437973;32;20072;-65
2022/03/19 00:18:39;;;;;;;1.05;0.77;;;8.00;99.90;;;;;;4440439;32;20073;-65
2022/03/19 00:21:06;;;;;;;0.60;0.60;;;8.10;99.90;;;;;;4436065;32;20109;-65
2022/03/19 00:23:31;;;;;;;0.80;0.50;;;7.90;99.90;;;;;;4434928;32;20074;-65
2022/03/19 00:25:57;;;;;;;0.90;0.60;;;7.90;99.90;;;;;;4435747;32;20092;-65
2022/03/19 00:28:22;;;;;;;2.45;0.65;;;7.90;99.90;;;;;;4440430;32;20062;-65
2022/03/19 00:30:48;;;;;;;2.17;0.85;;;7.70;99.90;;;;;;4434965;32;20547;-65
2022/03/19 00:33:14;;;;;;;0.60;0.60;;;7.70;99.90;;;;;;4437622;32;20065;-65
2022/03/19 00:35:39;;;;;;;1.87;0.70;;;7.80;99.90;;;;;;4437692;32;20069;-66
2022/03/19 00:38:05;;;;;;;1.58;0.52;;;7.70;99.90;;;;;;4437202;32;20073;-65
2022/03/19 00:40:33;;;;;;;0.50;0.50;;;7.60;99.90;;;;;;4438549;32;20549;-65
2022/03/19 00:42:58;;;;;;;0.32;0.32;;;7.50;99.90;;;;;;4434996;32;20092;-65
2022/03/19 00:45:24;;;;;;;0.30;0.30;;;7.60;99.90;;;;;;4437947;32;20077;-65
2022/03/19 00:47:49;;;;;;;1.37;0.82;;;7.50;99.90;;;;;;4434499;32;20085;-65
2022/03/19 00:50:15;;;;;;;0.50;0.50;;;7.50;99.90;;;;;;4435678;32;20085;-64
2022/03/19 00:52:41;;;;;;;1.37;0.93;;;7.40;99.90;;;;;;4439055;32;20081;-65
2022/03/19 00:55:07;;;;;;;1.95;0.98;;;7.40;99.90;;;;;;4432269;32;20084;-65
2022/03/19 00:57:48;;;;;;;3.20;1.23;;;7.50;99.90;;;;;;4437318;32;20061;-66
2022/03/19 01:00:15;;;;;;;;;;;7.50;99.90;;;;;;4420407;32;20429;-66
2022/03/19 01:02:42;;;;;;;0.40;0.40;;;7.40;99.90;;;;;;4437599;32;20015;-65
2022/03/19 01:05:09;;;;;;;0.32;0.32;;;7.30;99.90;;;;;;4436118;32;20054;-65
2022/03/19 01:07:52;;;;;;;2.97;0.77;;;7.30;99.90;;;;;;4433648;32;20093;-65
2022/03/19 01:10:21;;;;;;;3.83;0.60;;;7.20;99.90;;;;;;4435715;32;20105;-65
2022/03/19 01:12:47;;;;;;;3.87;0.73;;;7.30;99.90;;;;;;4433623;32;20513;-65
2022/03/19 01:15:13;;;;;;;0.57;0.57;;;7.20;99.90;;;;;;4437026;32;20065;-65
2022/03/19 01:17:39;;;;;;;0.40;0.40;;;7.20;99.90;;;;;;4432366;32;20533;-65
2022/03/19 01:20:06;;;;;;;0.30;0.30;;;7.10;99.90;;;;;;4433529;32;20093;-65
2022/03/19 01:22:32;;;;;;;0.55;0.55;;;7.20;99.90;;;;;;4437853;32;20069;-65
2022/03/19 01:25:03;;;;;;;0.40;0.40;;;7.10;99.90;;;;;;4433704;32;20125;-65
2022/03/19 01:27:29;;;;;;;;;;;7.20;99.90;;;;;;4438874;32;20068;-65
2022/03/19 01:29:55;;;;;;;0.37;0.37;;;7.10;99.90;;;;;;4433472;32;20397;-65
2022/03/19 01:32:20;;;;;;;6.03;1.02;;;7.10;99.90;;;;;;4438803;32;20209;-65
2022/03/19 01:34:46;;;;;;;0.30;0.30;;;7.10;99.90;;;;;;4438466;32;20783;-65
2022/03/19 01:37:11;;;;;;;0.30;0.30;;;7.10;99.90;;;;;;4439431;32;20068;-65
2022/03/19 01:39:37;;;;;;;0.40;0.40;;;7.10;99.90;;;;;;4435228;32;20525;-65
2022/03/19 01:42:02;;;;;;;0.37;0.37;;;7.00;99.90;;;;;;4435214;32;20084;-65
2022/03/19 01:44:28;;;;;;;0.35;0.35;;;6.90;99.90;;;;;;4432385;32;20151;-65
2022/03/19 01:46:56;;;;;;;0.35;0.35;;;7.00;99.90;;;;;;4437463;32;20100;-65
2022/03/19 01:49:22;;;;;;;0.40;0.40;;;6.90;99.90;;;;;;4433227;32;20080;-65
2022/03/19 01:51:48;;;;;;;0.40;0.40;;;6.80;99.90;;;;;;4434814;32;20064;-65
2022/03/19 01:54:14;;;;;;;4.07;0.82;;;6.80;99.90;;;;;;4435937;32;20446;-65
2022/03/19 01:56:41;;;;;;;0.37;0.37;;;6.80;99.90;;;;;;4434890;32;20473;-65
2022/03/19 01:59:07;;;;;;;1.05;1.02;;;6.70;99.90;;;;;;4432749;32;20077;-65
2022/03/19 02:01:33;;;;;;;0.30;0.30;;;6.70;99.90;;;;;;4436402;32;20497;-65
2022/03/19 02:04:00;;;;;;;0.98;0.55;;;6.70;99.90;;;;;;4433471;32;20529;-65
2022/03/19 02:06:26;;;;;;;3.40;0.95;;;6.70;99.90;;;;;;4437438;32;20069;-65
2022/03/19 02:08:53;;;;;;;0.80;0.62;;;6.70;99.90;;;;;;4435933;32;20077;-65
2022/03/19 02:11:18;;;;;;;4.80;1.27;;;6.60;99.90;;;;;;4437087;32;20140;-65
2022/03/19 02:13:44;;;;;;;0.60;0.60;;;6.30;99.90;;;;;;4436437;32;20453;-65
2022/03/19 02:16:09;;;;;;;5.93;1.08;;;6.30;99.90;;;;;;4433985;32;20065;-65
2022/03/19 02:18:35;;;;;;;0.37;0.37;;;6.50;99.90;;;;;;4433313;32;20073;-65
2022/03/19 02:21:01;;;;;;;1.83;0.55;;;6.40;99.90;;;;;;4435829;32;20431;-65
2022/03/19 02:25:35;;;;;;;0.40;0.40;;;6.30;99.90;;;;;;4434500;32;20131;-65
2022/03/19 02:26:13;;;;;;;0.43;0.43;;;6.20;99.90;;;;;;4421349;32;20093;-65
2022/03/19 02:28:38;;;;;;;0.40;0.40;;;6.30;99.90;;;;;;4435690;32;20097;-65
2022/03/19 02:31:04;;;;;;;0.30;0.30;;;6.30;99.90;;;;;;4434993;32;20105;-65
2022/03/19 02:33:30;;;;;;;0.77;0.73;;;6.20;99.90;;;;;;4437161;32;20116;-65
2022/03/19 02:35:55;;;;;;;0.43;0.43;;;6.20;99.90;;;;;;4429830;32;20148;-65
2022/03/19 02:38:21;;;;;;;8.25;1.17;;;6.30;99.90;;;;;;4434594;32;20069;-65
2022/03/19 02:40:46;;;;;;;0.65;0.65;;;6.30;99.90;;;;;;4435453;32;20494;-65
2022/03/19 02:43:12;;;;;;;0.75;0.75;;;6.30;99.90;;;;;;4434158;32;20074;-65
2022/03/19 02:45:37;;;;;;;0.32;0.32;;;6.20;99.90;;;;;;4432100;32;20061;-65
2022/03/19 02:48:03;;;;;;;7.85;0.60;;;6.30;99.90;;;;;;4435985;32;20073;-65
2022/03/19 02:50:31;;;;;;;0.45;0.45;;;6.30;99.90;;;;;;4432694;32;20165;-65
2022/03/19 02:52:58;;;;;;;6.15;1.37;;;6.30;99.90;;;;;;4432872;32;20061;-65
2022/03/19 02:55:23;;;;;;;7.93;1.40;;;6.50;99.90;;;;;;4431880;32;20104;-65
2022/03/19 02:57:49;;;;;;;0.30;0.30;;;6.40;99.90;;;;;;4433870;32;20181;-66
2022/03/19 03:00:16;;;;;;;16.10;1.45;;;6.30;99.90;;;;;;4434731;32;20123;-65
2022/03/19 03:02:41;;;;;;;5.90;1.20;;;6.20;99.90;;;;;;4433863;32;20080;-65
2022/03/19 03:05:09;;;;;;;2.37;0.90;;;6.10;99.90;;;;;;4435446;32;20158;-65
2022/03/19 03:07:35;;;;;;;13.15;0.60;;;6.20;99.90;;;;;;4434825;32;20133;-65
2022/03/19 03:10:00;;;;;;;0.45;0.45;;;6.20;99.90;;;;;;4437337;32;20132;-65
2022/03/19 03:12:26;;;;;;;1.08;0.50;;;6.30;99.90;;;;;;4436250;32;20061;-65
2022/03/19 03:14:52;;;;;;;0.47;0.47;;;6.30;99.90;;;;;;4433038;32;20086;-65
2022/03/19 03:17:17;;;;;;;3.83;0.60;;;6.40;99.90;;;;;;4432212;32;20418;-65
2022/03/19 03:19:43;;;;;;;0.47;0.45;;;6.40;99.90;;;;;;4432326;32;20089;-65
2022/03/19 03:22:09;;;;;;;1.35;0.80;;;6.40;99.90;;;;;;4436035;32;20073;-65
2022/03/19 03:24:35;;;;;;;0.60;0.60;;;6.30;99.90;;;;;;4435747;32;20080;-65
2022/03/19 03:27:00;;;;;;;0.50;0.50;;;6.10;99.90;;;;;;4433239;32;20061;-65
2022/03/19 03:29:25;;;;;;;0.30;0.30;;;6.10;99.90;;;;;;4433104;32;20076;-65
2022/03/19 03:31:51;;;;;;;1.27;0.68;;;6.10;99.90;;;;;;4433763;32;20057;-65
2022/03/19 03:34:16;;;;;;;1.00;0.47;;;6.10;99.90;;;;;;4434001;32;20069;-65
2022/03/19 03:36:42;;;;;;;0.50;0.50;;;6.10;99.90;;;;;;4438286;32;20064;-65
2022/03/19 03:39:07;;;;;;;1.33;0.98;;;6.20;99.90;;;;;;4433535;32;20458;-65
2022/03/19 03:41:33;;;;;;;20.67;1.15;;;6.20;99.90;;;;;;4434820;32;20065;-65
2022/03/19 03:43:58;;;;;;;1.52;0.73;;;6.20;99.90;;;;;;4434257;32;20587;-65
2022/03/19 03:46:24;;;;;;;0.43;0.43;;;6.20;99.90;;;;;;4435552;32;20130;-65
2022/03/19 03:48:49;;;;;;;0.30;0.30;;;6.10;99.90;;;;;;4435584;32;20076;-65
2022/03/19 03:51:15;;;;;;;0.65;0.65;;;6.00;99.90;;;;;;4436256;32;20073;-65
2022/03/19 03:53:44;;;;;;;0.75;0.75;;;6.10;99.90;;;;;;4437759;32;20082;-65
2022/03/19 03:56:09;;;;;;;0.40;0.40;;;6.00;99.90;;;;;;4434029;32;20065;-65
2022/03/19 03:58:35;;;;;;;2.50;1.25;;;5.90;99.90;;;;;;4434720;32;20196;-65
2022/03/19 04:01:00;;;;;;;4.70;1.10;;;5.90;99.90;;;;;;4436288;32;20127;-65
2022/03/19 04:03:26;;;;;;;0.30;0.30;;;5.80;99.90;;;;;;4435358;32;20422;-65
2022/03/19 04:05:52;;;;;;;7.43;2.53;;;5.80;99.90;;;;;;4434015;32;20735;-65
2022/03/19 04:08:17;;;;;;;4.93;0.77;;;5.70;99.90;;;;;;4432153;32;20416;-65
2022/03/19 04:10:42;;;;;;;0.90;0.82;;;5.60;99.90;;;;;;4436306;32;20081;-65
2022/03/19 04:13:08;;;;;;;0.45;0.45;;;5.60;99.90;;;;;;4434814;32;20098;-65
2022/03/19 04:15:34;;;;;;;0.40;0.40;;;5.50;99.90;;;;;;4432567;32;20620;-65
2022/03/19 04:18:01;;;;;;;0.50;0.50;;;5.40;99.90;;;;;;4437047;32;20078;-65
2022/03/19 04:20:27;;;;;;;0.50;0.50;;;5.40;99.90;;;;;;4431955;32;20090;-65
2022/03/19 04:22:53;;;;;;;0.30;0.30;;;5.50;99.90;;;;;;4433176;32;20452;-65
2022/03/19 04:25:20;;;;;;;0.28;0.28;;;5.50;99.90;;;;;;4432640;32;20069;-65
2022/03/19 04:27:48;;;;;;;0.40;0.40;;;5.60;99.90;;;;;;4433039;32;20073;-65
2022/03/19 04:30:16;;;;;;;1.45;0.95;;;5.50;99.90;;;;;;4435100;32;20108;-65
2022/03/19 04:32:44;;;;;;;1.70;1.05;;;5.40;99.90;;;;;;4435529;32;20061;-65
2022/03/19 04:36:42;;;;;;;0.30;0.30;;;5.40;99.90;;;;;;4433285;32;20085;-65
2022/03/19 04:37:59;;;;;;;8.90;1.27;;;5.30;99.90;;;;;;4420846;32;20074;-65
2022/03/19 04:40:25;;;;;;;0.40;0.40;;;5.20;99.90;;;;;;4434072;32;20066;-65
2022/03/19 04:42:50;;;;;;;0.50;0.50;;;5.20;99.90;;;;;;4435553;32;20110;-65
2022/03/19 04:45:16;;;;;;;1.08;0.75;;;5.20;99.90;;;;;;4432153;32;20144;-65
2022/03/19 04:47:42;;;;;;;2.78;0.75;;;5.10;99.90;;;;;;4432015;32;20081;-65
2022/03/19 04:50:08;;;;;;;0.40;0.40;;;5.10;99.90;;;;;;4431124;32;20090;-65
2022/03/19 04:52:34;;;;;;;0.50;0.50;;;5.10;99.90;;;;;;4433453;32;20513;-65
2022/03/19 04:55:00;;;;;;;4.95;1.15;;;5.10;99.90;;;;;;4433776;32;20451;-65
2022/03/19 04:57:28;;;;;;;3.00;0.93;;;5.20;99.90;;;;;;4435832;32;20506;-65
2022/03/19 04:59:54;;;;;;;0.62;0.45;;;5.40;99.90;;;;;;4439274;32;20104;-65
2022/03/19 05:02:24;;;;;;;0.40;0.40;;;5.40;99.90;;;;;;4435758;32;20558;-65
2022/03/19 05:04:51;;;;;;;0.45;0.45;;;5.40;99.90;;;;;;4435631;32;20097;-65
2022/03/19 05:07:17;;;;;;;0.52;0.52;;;5.40;99.90;;;;;;4435472;32;20485;-65
2022/03/19 05:11:15;;;;;;;0.55;0.55;;;5.30;99.90;;;;;;4436595;32;20082;-65
2022/03/19 05:12:31;;;;;;;0.35;0.35;;;5.30;99.90;;;;;;4424865;32;21377;-65
2022/03/19 05:14:56;;;;;;;3.60;0.77;;;5.20;99.90;;;;;;4434648;32;20112;-65
2022/03/19 05:17:22;;;;;;;0.40;0.40;;;5.00;99.90;;;;;;4441413;32;20082;-65
2022/03/19 05:19:47;;;;;;;2.20;1.52;;;4.90;99.90;;;;;;4438349;32;20081;-66
2022/03/19 05:22:12;;;;;;;0.75;0.75;;;4.90;99.90;;;;;;4438606;32;20064;-65
2022/03/19 05:24:39;;;;;;;0.55;0.55;;;4.90;99.90;;;;;;4435542;32;20102;-64
2022/03/19 05:27:04;;;;;;;0.43;0.43;;;5.00;99.90;;;;;;4434882;32;20100;-64
2022/03/19 05:29:31;;;;;;;1.17;1.10;;;4.80;99.90;;;;;;4434257;32;20106;-64
2022/03/19 05:31:58;;;;;;;0.55;0.55;;;4.90;99.90;;;;;;4437066;32;20101;-65
2022/03/19 05:34:31;;;;;;;0.60;0.50;;;5.00;99.90;;;;;;4433041;32;20361;-64
2022/03/19 05:36:59;;;;;;;1.95;0.88;;;4.90;99.90;;;;;;4435300;32;20088;-64
2022/03/19 05:39:26;;;;;;;0.80;0.80;;;4.90;99.90;;;;;;4435939;32;20097;-64
2022/03/19 05:41:52;;;;;;;5.20;0.95;;;5.00;99.90;;;;;;4434605;32;20069;-64
2022/03/19 05:44:18;;;;;;;0.88;0.75;;;5.20;99.90;;;;;;4435261;32;20069;-64
2022/03/19 05:46:44;;;;;;;0.50;0.50;;;5.20;99.90;;;;;;4437099;32;20072;-65
2022/03/19 05:49:09;;;;;;;2.65;1.40;;;5.10;99.90;;;;;;4435773;32;20465;-64
2022/03/19 05:51:35;;;;;;;0.43;0.43;;;5.30;99.90;;;;;;4434410;32;20564;-64
2022/03/19 05:54:00;;;;;;;0.40;0.40;;;5.20;99.90;;;;;;4434587;32;20065;-64
2022/03/19 05:56:26;;;;;;;6.90;0.82;;;5.20;99.90;;;;;;4436788;32;20528;-64
2022/03/19 05:58:52;;;;;;;0.30;0.30;;;5.20;99.90;;;;;;4432961;32;20073;-64
2022/03/19 06:01:17;;;;;;;3.00;1.55;;;5.10;99.90;;;;;;4436318;32;20073;-64
2022/03/19 06:03:43;;;;;;;0.60;0.60;;;5.20;99.90;;;;;;4433201;32;20084;-65
2022/03/19 06:06:09;;;;;;;0.30;0.30;;;5.10;99.90;;;;;;4433326;32;20073;-65
2022/03/19 06:08:35;;;;;;;2.95;1.40;;;5.10;99.90;;;;;;4437733;32;20105;-65
2022/03/19 06:11:00;;;;;;;0.40;0.40;;;5.10;99.90;;;;;;4436434;32;20096;-65
2022/03/19 06:13:26;;;;;;;3.55;1.02;;;5.20;99.90;;;;;;4436027;32;20080;-64
2022/03/19 06:15:51;;;;;;;0.40;0.40;;;5.20;99.90;;;;;;4434149;32;20178;-64
2022/03/19 06:18:17;;;;;;;0.35;0.35;;;5.30;99.90;;;;;;4434287;32;20126;-64
2022/03/19 06:20:43;;;;;;;0.30;0.30;;;5.20;99.90;;;;;;4436147;32;20148;-64
2022/03/19 06:23:08;;;;;;;2.65;1.45;;;5.10;99.90;;;;;;4440878;32;20069;-65
2022/03/19 06:25:35;;;;;;;1.25;0.82;;;5.40;99.90;;;;;;4435767;32;20140;-65
2022/03/19 06:28:01;;;;;;;2.17;0.50;;;5.50;99.90;;;;;;4437165;32;20062;-65
2022/03/19 06:30:27;;;;;;;0.55;0.55;;;5.50;99.90;;;;;;4435251;32;20065;-65
2022/03/19 06:32:52;;;;;;;0.30;0.30;;;5.50;99.90;;;;;;4435971;32;20081;-65
2022/03/19 06:37:19;;;;;;;0.30;0.30;;;5.50;99.90;;;;;;4431446;32;20077;-65
2022/03/19 06:38:03;;;;;;;0.30;0.30;;;5.70;99.90;;;;;;4419189;32;20124;-65
2022/03/19 06:40:29;;;;;;;0.57;0.57;;;5.80;99.90;;;;;;4434154;32;20096;-65
2022/03/19 06:42:54;;;;;;;1.55;1.25;;;5.90;99.90;;;;;;4434925;32;20101;-65
2022/03/19 06:45:20;;;;;;;0.32;0.32;;;5.80;99.90;;;;;;4433056;32;20486;-65
2022/03/19 06:47:46;;;;;;;0.30;0.30;;;5.90;99.90;;;;;;4434350;32;20069;-65
2022/03/19 06:50:11;;;;;;;0.30;0.30;;;6.00;99.90;;;;;;4435257;32;20085;-65
2022/03/19 06:52:37;;;;;;;0.55;0.50;;;6.00;99.90;;;;;;4437030;32;20159;-65
2022/03/19 06:55:03;;;;;;;0.80;0.47;;;6.00;99.90;;;;;;4438748;32;20086;-65
2022/03/19 06:57:28;;;;;;;8.23;2.15;;;6.10;99.90;;;;;;4437805;32;20070;-65
2022/03/19 06:59:54;;;;;;;0.32;0.32;;;6.10;99.90;;;;;;4436456;32;20092;-65
2022/03/19 07:02:19;;;;;;;0.40;0.40;;;6.00;99.90;;;;;;4436151;32;20123;-65
2022/03/19 07:04:44;;;;;;;0.30;0.30;;;6.20;99.90;;;;;;4437339;32;20462;-65
2022/03/19 07:07:10;;;;;;;0.30;0.30;;;6.20;99.90;;;;;;4436828;32;20069;-65
2022/03/19 07:09:35;;;;;;;1.08;0.88;;;6.20;99.90;;;;;;4433571;32;20080;-64
2022/03/19 07:12:01;;;;;;;0.50;0.50;;;6.30;99.90;;;;;;4434032;32;20072;-65
2022/03/19 07:14:26;;;;;;;0.30;0.30;;;6.30;99.90;;;;;;4431592;32;20299;-65
2022/03/19 07:16:54;;;;;;;0.62;0.62;;;6.20;99.90;;;;;;4432451;32;20064;-65
2022/03/19 07:19:19;;;;;;;0.50;0.50;;;6.30;99.90;;;;;;4437714;32;20077;-65
2022/03/19 07:21:45;;;;;;;24.75;0.93;;;6.50;99.90;;;;;;4434004;32;20080;-65
2022/03/19 07:24:10;;;;;;;0.30;0.30;;;6.60;99.90;;;;;;4434348;32;20136;-64
2022/03/19 07:26:36;;;;;;;0.70;0.70;;;6.60;99.90;;;;;;4432036;32;20514;-65
2022/03/19 07:29:02;;;;;;;3.92;1.12;;;6.60;99.90;;;;;;4432569;32;20080;-65
2022/03/19 07:31:28;;;;;;;0.22;0.22;;;6.60;99.90;;;;;;4431655;32;20128;-65
2022/03/19 07:33:53;;;;;;;0.40;0.40;;;6.50;99.90;;;;;;4432810;32;20081;-65
2022/03/19 07:36:19;;;;;;;0.30;0.30;;;6.70;99.90;;;;;;4430513;32;103062;-65
2022/03/19 07:38:45;;;;;;;1.00;0.95;;;6.70;99.90;;;;;;4434474;32;20076;-65
2022/03/19 07:42:11;;;;;;;0.65;0.65;;;6.80;99.90;;;;;;4435473;32;20057;-65
2022/03/19 07:43:57;;;;;;;0.60;0.60;;;6.90;99.90;;;;;;4422755;32;20093;-65
2022/03/19 07:46:24;;;;;;;0.57;0.57;;;7.10;99.90;;;;;;4432999;32;20073;-65
2022/03/19 07:48:50;;;;;;;0.30;0.30;;;7.00;99.90;;;;;;4436820;32;20060;-65
2022/03/19 07:51:15;;;;;;;0.55;0.55;;;7.10;99.90;;;;;;4432573;32;20107;-65
2022/03/19 07:53:41;;;;;;;0.77;0.75;;;7.20;99.90;;;;;;4440838;32;20086;-65
2022/03/19 07:56:06;;;;;;;0.50;0.50;;;7.10;99.90;;;;;;4435492;32;20579;-65
2022/03/19 07:58:32;;;;;;;3.05;0.55;;;7.20;99.90;;;;;;4436928;32;20081;-65
2022/03/19 08:00:57;;;;;;;0.50;0.50;;;7.30;99.90;;;;;;4432442;32;20100;-65
2022/03/19 08:03:23;;;;;;;0.80;0.43;;;7.40;99.90;;;;;;4432591;32;20081;-65
2022/03/19 08:05:48;;;;;;;0.30;0.30;;;7.60;99.90;;;;;;4435086;32;20065;-65
2022/03/19 08:08:14;;;;;;;1.52;1.05;;;7.60;99.90;;;;;;4435679;32;20104;-65
2022/03/19 08:10:40;;;;;;;26.02;1.20;;;7.80;99.90;;;;;;4435454;32;20090;-65
2022/03/19 08:13:07;;;;;;;0.60;0.60;;;7.90;99.90;;;;;;4434592;32;20097;-65
2022/03/19 08:15:33;;;;;;;0.28;0.28;;;8.00;99.90;;;;;;4431012;32;20065;-65
2022/03/19 08:17:59;;;;;;;0.30;0.30;;;8.20;99.90;;;;;;4434548;32;20088;-65
2022/03/19 08:20:27;;;;;;;0.40;0.40;;;8.20;99.90;;;;;;4433209;32;20093;-65
2022/03/19 08:22:52;;;;;;;0.30;0.30;;;8.20;99.90;;;;;;4435391;32;20069;-65
2022/03/19 08:25:18;;;;;;;2.30;1.27;;;8.20;99.90;;;;;;4435835;32;20112;-65
2022/03/19 08:27:43;;;;;;;0.43;0.43;;;8.20;99.90;;;;;;4434209;32;20510;-65
2022/03/19 08:30:09;;;;;;;0.30;0.30;;;8.20;99.90;;;;;;4433293;32;20088;-65
2022/03/19 08:32:35;;;;;;;0.40;0.40;;;8.20;99.90;;;;;;4435653;32;20135;-64
2022/03/19 08:35:00;;;;;;;0.40;0.40;;;8.20;99.90;;;;;;4436362;32;20402;-65
2022/03/19 08:37:26;;;;;;;1.05;0.98;;;8.20;99.90;;;;;;4438388;32;20136;-65
2022/03/19 08:40:28;;;;;;;0.88;0.50;;;8.20;99.90;;;;;;4438214;32;20153;-64
2022/03/19 08:42:39;;;;;;;1.17;1.00;;;8.30;99.90;;;;;;4424024;32;20152;-64
2022/03/19 08:45:05;;;;;;;0.60;0.60;;;8.50;99.90;;;;;;4433561;32;20065;-65
2022/03/19 08:47:31;;;;;;;0.45;0.30;;;8.80;99.90;;;;;;4438909;32;20109;-65
2022/03/19 08:49:57;;;;;;;0.50;0.50;;;9.00;99.90;;;;;;4437576;32;20065;-65
2022/03/19 08:52:22;;;;;;;0.93;0.65;;;9.10;99.90;;;;;;4436668;32;20460;-65
2022/03/19 08:54:48;;;;;;;1.10;0.60;;;9.20;99.90;;;;;;4434864;32;20407;-65
2022/03/19 08:57:14;;;;;;;23.67;0.65;;;9.20;99.90;;;;;;4437294;32;20073;-65
2022/03/19 08:59:39;;;;;;;0.50;0.50;;;9.50;99.90;;;;;;4436962;32;20865;-66
2022/03/19 09:02:05;;;;;;;5.72;1.85;;;9.50;99.90;;;;;;4438732;32;20077;-65
2022/03/19 09:04:32;;;;;;;0.60;0.60;;;9.70;99.90;;;;;;4434233;32;20485;-65
2022/03/19 09:06:58;;;;;;;0.30;0.30;;;9.90;99.90;;;;;;4438205;32;20551;-65
2022/03/19 09:09:24;;;;;;;0.50;0.50;;;9.90;99.90;;;;;;4435139;32;20171;-65
2022/03/19 09:11:50;;;;;;;0.45;0.45;;;9.90;99.90;;;;;;4436525;32;20088;-65
2022/03/19 09:14:18;;;;;;;0.70;0.70;;;9.90;99.90;;;;;;4435259;32;20481;-65
2022/03/19 09:16:44;;;;;;;0.82;0.68;;;9.90;99.90;;;;;;4434021;32;20575;-63
2022/03/19 09:19:10;;;;;;;0.30;0.30;;;9.90;99.90;;;;;;4434725;32;20061;-65
2022/03/19 09:21:36;;;;;;;0.30;0.30;;;10.00;99.90;;;;;;4437936;32;20139;-65
2022/03/19 09:24:02;;;;;;;0.30;0.30;;;10.40;99.90;;;;;;4435092;32;20086;-63
2022/03/19 09:26:28;;;;;;;1.52;1.02;;;10.30;99.90;;;;;;4435402;32;20163;-65
2022/03/19 09:28:53;;;;;;;0.20;0.20;;;10.30;99.90;;;;;;4431894;32;20072;-63
2022/03/19 09:31:19;;;;;;;0.40;0.40;;;10.40;99.90;;;;;;4435721;32;20162;-64
2022/03/19 09:33:45;;;;;;;2.20;0.50;;;10.70;99.90;;;;;;4436776;32;20458;-64
2022/03/19 09:36:11;;;;;;;1.70;0.88;;;10.90;99.90;;;;;;4435706;32;20128;-65
2022/03/19 09:38:37;;;;;;;0.40;0.40;;;11.00;99.90;;;;;;4441172;32;20639;-65
2022/03/19 09:41:02;;;;;;;0.77;0.40;;;11.20;99.90;;;;;;4436969;32;20194;-64
2022/03/19 09:43:29;;;;;;;0.60;0.60;;;11.50;99.90;;;;;;4431722;32;20135;-65
2022/03/19 09:45:55;;;;;;;0.50;0.50;;;11.70;99.90;;;;;;4434421;32;20089;-65
2022/03/19 09:48:22;;;;;;;0.30;0.30;;;11.50;99.90;;;;;;4437201;32;20069;-65
2022/03/19 09:50:53;;;;;;;0.30;0.30;;;11.40;99.90;;;;;;4437733;32;20097;-65
2022/03/19 09:53:23;;;;;;;0.50;0.50;;;11.70;99.90;;;;;;4434857;32;20611;-65
2022/03/19 09:55:50;;;;;;;0.43;0.43;;;11.80;99.90;;;;;;4438258;32;20089;-65
2022/03/19 09:58:16;;;;;;;3.70;1.40;;;11.80;99.90;;;;;;4432906;32;20088;-65
2022/03/19 10:00:43;;;;;;;0.60;0.60;;;11.90;99.90;;;;;;4434788;32;20189;-65
2022/03/19 10:03:10;;;;;;;0.50;0.50;;;12.20;99.90;;;;;;4431451;32;20617;-65
2022/03/19 10:08:41;;;;;;;0.90;0.75;;;12.30;99.90;;;;;;4422080;32;20138;-64
2022/03/19 10:11:08;;;;;;;0.30;0.30;;;12.30;99.90;;;;;;4432721;32;20112;-64
2022/03/19 10:13:44;;;;;;;0.32;0.32;;;12.00;99.90;;;;;;4436122;32;20061;-64
2022/03/19 10:16:11;;;;;;;0.40;0.40;;;12.10;99.90;;;;;;4435489;32;20073;-65
2022/03/19 10:18:37;;;;;;;0.73;0.70;;;12.40;99.90;;;;;;4433300;32;20392;-65
2022/03/19 10:21:13;;;;;;;0.40;0.40;;;12.30;99.90;;;;;;4429778;32;20090;-64
2022/03/19 10:23:40;;;;;;;0.30;0.30;;;12.00;99.90;;;;;;4435391;32;20119;-65
2022/03/19 10:26:06;;;;;;;0.40;0.40;;;11.70;99.90;;;;;;4435032;32;20096;-64
2022/03/19 10:28:35;;;;;;;0.43;0.43;;;11.60;99.90;;;;;;4435048;32;20105;-64
2022/03/19 10:31:02;;;;;;;0.32;0.32;;;11.60;99.90;;;;;;4431762;32;20121;-64
2022/03/19 10:33:30;;;;;;;0.60;0.60;;;11.40;99.90;;;;;;4435804;32;20074;-64
2022/03/19 10:36:06;;;;;;;2.60;1.40;;;11.10;99.90;;;;;;4433301;32;20118;-64
2022/03/19 10:38:42;;;;;;;0.50;0.50;;;11.10;99.90;;;;;;4435140;32;20064;-64
2022/03/19 10:41:08;;;;;;;0.55;0.55;;;11.40;99.90;;;;;;4434412;32;20089;-65
2022/03/19 10:43:34;;;;;;;0.62;0.60;;;11.80;99.90;;;;;;4435649;32;20081;-64
2022/03/19 10:46:02;;;;;;;0.47;0.47;;;12.30;99.70;;;;;;4434882;32;20459;-66
2022/03/19 10:48:28;;;;;;;0.30;0.30;;;12.50;98.30;;;;;;4434226;32;20061;-65
2022/03/19 10:50:54;;;;;;;0.95;0.43;;;12.80;98.20;;;;;;4437966;32;20431;-65
2022/03/19 10:53:21;;;;;;;0.40;0.40;;;13.10;97.60;;;;;;4434430;32;20112;-65
2022/03/19 10:55:47;;;;;;;2.28;0.60;;;12.90;97.30;;;;;;4434825;32;20076;-65
2022/03/19 10:58:13;;;;;;;0.30;0.30;;;12.90;97.30;;;;;;4435191;32;20119;-65
2022/03/19 11:00:38;;;;;;;1.40;0.50;;;13.10;96.90;;;;;;4433785;32;20084;-65
2022/03/19 11:03:17;;;;;;;22.60;0.82;;;12.90;96.50;;;;;;4434644;32;20081;-65
2022/03/19 11:05:44;;;;;;;0.90;0.57;;;12.50;97.20;;;;;;4433267;32;20132;-64
2022/03/19 11:08:11;;;;;;;0.45;0.45;;;12.40;97.60;;;;;;4435538;32;20061;-66
2022/03/19 11:10:37;;;;;;;0.40;0.40;;;12.10;98.30;;;;;;4433012;32;20158;-64
2022/03/19 11:13:03;;;;;;;0.73;0.73;;;12.30;98.70;;;;;;4435216;32;20112;-64
2022/03/19 11:15:33;;;;;;;0.40;0.40;;;12.70;98.30;;;;;;4433675;32;20076;-64
2022/03/19 11:18:03;;;;;;;2.35;0.77;;;12.80;98.40;;;;;;4429584;32;20069;-63
2022/03/19 11:20:30;;;;;;;0.82;0.80;;;12.90;98.00;;;;;;4433571;32;20089;-65
2022/03/19 11:22:58;;;;;;;1.40;0.70;;;12.60;97.80;;;;;;4435609;32;20151;-64
2022/03/19 11:25:30;;;;;;;3.53;1.12;;;12.60;98.30;;;;;;4434073;32;20097;-64
2022/03/19 11:28:06;;;;;;;2.55;1.30;;;12.70;98.40;;;;;;4434032;32;20093;-64
2022/03/19 11:30:40;;;;;;;0.68;0.68;;;13.30;97.50;;;;;;4431393;32;20592;-64
2022/03/19 11:33:09;;;;;;;1.98;0.45;;;13.60;96.90;;;;;;4435711;32;20120;-65
2022/03/19 11:35:38;;;;;;;0.70;0.70;;;13.90;96.60;;;;;;4432350;32;20069;-65
2022/03/19 11:38:11;;;;;;;0.70;0.70;;;14.00;95.80;;;;;;4431432;32;20069;-64
2022/03/19 11:40:38;;;;;;;0.35;0.35;;;13.40;96.20;;;;;;4434838;32;20069;-64
2022/03/19 11:43:05;;;;;;;1.55;0.82;;;12.90;96.60;;;;;;4434791;32;20061;-64
2022/03/19 11:45:52;;;;;;;0.70;0.70;;;12.70;97.40;;;;;;4434236;32;20136;-65
2022/03/19 11:48:41;;;;;;;0.40;0.40;;;13.00;97.60;;;;;;4419917;32;20465;-64
2022/03/19 11:51:31;;;;;;;1.20;0.80;;;13.20;96.60;;;;;;4424235;32;20525;-64
2022/03/19 11:54:01;;;;;;;0.62;0.62;;;13.30;96.70;;;;;;4422620;32;20085;-64
2022/03/19 11:56:48;;;;;;;2.50;1.15;;;13.10;96.10;;;;;;4432703;32;20089;-65
2022/03/19 11:59:22;;;;;;;0.50;0.50;;;13.40;96.10;;;;;;4421421;32;20105;-65
2022/03/19 12:01:55;;;;;;;4.97;1.90;;;13.70;95.70;;;;;;4433024;32;20504;-64
2022/03/19 12:04:22;;;;;;;2.20;0.50;;;14.10;94.30;;;;;;4437539;32;20110;-64
2022/03/19 12:06:53;;;;;;;1.12;0.50;;;13.90;94.10;;;;;;4439985;32;20082;-65
2022/03/19 12:09:19;;;;;;;;;;;13.80;94.40;;;;;;4439198;32;20069;-65
2022/03/19 12:12:23;;;;;;;14.25;0.73;;;13.40;95.10;;;;;;4433985;32;19955;-64
2022/03/19 12:14:48;;;;;;;0.60;0.60;;;13.40;95.80;;;;;;4425824;32;20489;-64
2022/03/19 12:17:27;;;;;;;2.53;0.50;;;13.30;96.50;;;;;;4437491;32;20069;-64
2022/03/19 12:20:04;;;;;;;1.60;0.80;;;13.00;97.10;;;;;;4434203;32;20078;-64
2022/03/19 12:22:39;;;;;;;1.80;0.60;;;12.70;97.60;;;;;;4439366;32;20092;-64
2022/03/19 12:25:11;;;;;;;0.50;0.50;;;12.80;98.00;;;;;;4433680;32;20781;-64
2022/03/19 12:27:38;;;;;;;4.47;0.70;;;13.40;97.50;;;;;;4440279;32;20085;-64
2022/03/19 12:30:05;;;;;;;0.52;0.52;;;13.80;96.60;;;;;;4438097;32;20520;-64
2022/03/19 12:32:44;;;;;;;1.12;0.60;;;14.00;95.60;;;;;;4440462;32;20065;-65
2022/03/19 12:35:09;;;;;;;0.80;0.80;;;14.10;95.70;;;;;;4439545;32;20140;-64
2022/03/19 12:37:46;;;;;;;1.73;1.00;;;14.30;95.00;;;;;;4437589;32;20081;-64
2022/03/19 12:40:18;;;;;;;0.50;0.50;;;14.10;95.20;;;;;;4433420;32;20502;-64
2022/03/19 12:42:51;;;;;;;0.68;0.68;;;14.60;95.20;;;;;;4437763;32;20565;-64
2022/03/19 12:45:17;;;;;;;0.65;0.50;;;15.00;93.90;;;;;;4435507;32;20078;-64
2022/03/19 12:47:42;;;;;;;0.52;0.52;;;14.80;94.10;;;;;;4435145;32;20066;-64
2022/03/19 12:50:08;;;;;;;0.50;0.50;;;15.20;93.80;;;;;;4435294;32;20084;-64
2022/03/19 12:52:33;;;;;;;2.12;0.60;;;15.80;93.20;;;;;;4431498;32;20112;-64
2022/03/19 12:55:00;;;;;;;0.95;0.88;;;16.30;91.90;;;;;;4433474;32;20551;-64
2022/03/19 12:57:31;;;;;;;2.55;0.57;;;16.20;91.10;;;;;;4433913;32;20077;-64
2022/03/19 12:59:59;;;;;;;0.60;0.60;;;16.20;91.70;;;;;;4437944;32;20581;-64